Sequoia — WDJ4306 — position and weather

sailwx.info

Track history (hours):
 
Tides and Currents Weather Stations Pressure Air Temp Water Temp Dewpoint Dewpoint Depression Visibility Wind Speed Wind Dir Waves Ship Positions

Sequoia

Owner: PropSF, LLC, Alameda, CA. More information available from US FCC via Universal Licensing System and Coast Guard Vessel Documentation Center.

Last reported at 2018-Apr-24 12:31 UTC. Time now 2018-Apr-24 12:42 UTC.
Position N 37°55' W 122°21'.

Length 17 m.

Type: Passenger vessel. MMSI: 367776380.

Date/timePositionNaut miles runAvg speedWind from/ knotsBaromVisibWave heightAir tempDewpointWater temp
2018-Apr-24 12:31N 37°55' W 122°21'3 5.4
2018-Apr-24 12:00N 37°52' W 122°23'4 0.3
2018-Apr-24 01:04N 37°51' W 122°19'118.7
2018-Apr-24 01:00N 37°51' W 122°20'2 4.6
2018-Apr-24 00:30N 37°49' W 122°21'917.7
2018-Apr-24 00:00N 37°40' W 122°23'917.6
2018-Apr-23 23:30N 37°49' W 122°23'612.0
2018-Apr-23 23:01N 37°55' W 122°21'1020.1
2018-Apr-23 22:31N 37°44' W 122°21'5 9.3
2018-Apr-23 22:00N 37°40' W 122°23'917.5
2018-Apr-23 21:31N 37°48' W 122°22'3 0.6
2018-Apr-23 15:43N 37°50' W 122°19'417.0
2018-Apr-23 15:31N 37°47' W 122°21'713.3
2018-Apr-23 15:00N 37°41' W 122°22'1122.3
2018-Apr-23 14:30N 37°52' W 122°19'4 7.3
2018-Apr-23 14:01N 37°49' W 122°21'917.6
2018-Apr-23 13:31N 37°40' W 122°22'1325.9
2018-Apr-23 13:01N 37°53' W 122°23'3 5.4
2018-Apr-23 12:30N 37°55' W 122°21'4 8.3
2018-Apr-23 12:01N 37°51' W 122°21'  
2018-Apr-21 01:16N 37°50' W 122°19'2 6.1
2018-Apr-21 01:01N 37°51' W 122°21'1 3.0
2018-Apr-21 00:30N 37°50' W 122°21'1019.5
2018-Apr-21 00:00N 37°40' W 122°23'917.2
2018-Apr-20 23:31N 37°48' W 122°23'612.9
2018-Apr-20 23:00N 37°55' W 122°21'1019.5
2018-Apr-20 22:31N 37°45' W 122°22'510.4
2018-Apr-20 22:00N 37°40' W 122°22'1122.0
2018-Apr-20 21:31N 37°51' W 122°19'0 0.1
2018-Apr-20 16:59N 37°50' W 122°19'0 0.0
2018-Apr-20 16:30N 37°50' W 122°19'0 0.0
2018-Apr-20 16:00N 37°50' W 122°19'4 8.9
2018-Apr-20 15:31N 37°46' W 122°21'611.5
2018-Apr-20 15:00N 37°41' W 122°22'1121.9
2018-Apr-20 14:30N 37°52' W 122°20'3 5.7
2018-Apr-20 14:01N 37°49' W 122°21'918.1
2018-Apr-20 13:31N 37°40' W 122°22'1224.8
2018-Apr-20 13:01N 37°52' W 122°24'3 6.3
2018-Apr-20 12:30N 37°55' W 122°21'4 7.9
2018-Apr-20 12:01N 37°51' W 122°22'3 0.2
2018-Apr-20 01:04N 37°50' W 122°19'1 9.0
2018-Apr-20 01:01N 37°51' W 122°19'2 4.0
2018-Apr-20 00:31N 37°50' W 122°22'1019.7
2018-Apr-20 00:00N 37°40' W 122°23'1019.4
2018-Apr-19 23:31N 37°49' W 122°23'510.6
2018-Apr-19 23:01N 37°55' W 122°21'1019.9
2018-Apr-19 22:31N 37°45' W 122°21'5 9.8
2018-Apr-19 22:00N 37°40' W 122°23'3 6.1
2018-Apr-19 21:31N 37°43' W 122°21'815.5
2018-Apr-19 21:00N 37°50' W 122°19'0 0.0
2018-Apr-19 17:30N 37°50' W 122°19'0 0.0
2018-Apr-19 17:00N 37°50' W 122°19'0 0.0
2018-Apr-19 16:30N 37°50' W 122°19'0 0.0
2018-Apr-19 16:00N 37°50' W 122°19'4 8.3
2018-Apr-19 15:30N 37°47' W 122°22'612.5
2018-Apr-19 15:00N 37°41' W 122°22'1121.7
2018-Apr-19 14:30N 37°52' W 122°20'3 6.9
2018-Apr-19 14:00N 37°49' W 122°21'917.2
2018-Apr-19 13:31N 37°40' W 122°22'1325.2
2018-Apr-19 13:00N 37°52' W 122°24'3 5.9
2018-Apr-19 12:30N 37°55' W 122°21'3 6.9
2018-Apr-19 12:00N 37°52' W 122°22'3 0.3
2018-Apr-19 01:03N 37°50' W 122°19'0 5.1
2018-Apr-19 01:00N 37°51' W 122°19'2 4.9
2018-Apr-19 00:31N 37°50' W 122°22'1020.5
2018-Apr-19 00:00N 37°40' W 122°23'816.2
2018-Apr-18 23:30N 37°48' W 122°22'713.6
2018-Apr-18 23:00N 37°55' W 122°21'918.2
2018-Apr-18 22:31N 37°46' W 122°22'611.7
2018-Apr-18 22:00N 37°40' W 122°23'2 4.2
2018-Apr-18 21:30N 37°42' W 122°22'917.9
2018-Apr-18 21:00N 37°50' W 122°19'0 0.0
2018-Apr-18 18:03N 37°50' W 122°19'0 0.0
2018-Apr-18 18:01N 37°50' W 122°19'0 0.0
2018-Apr-18 17:30N 37°50' W 122°19'0 0.0
2018-Apr-18 17:00N 37°50' W 122°19'0 0.0
2018-Apr-18 16:30N 37°50' W 122°19'0 0.0
2018-Apr-18 16:00N 37°50' W 122°19'3 6.4
2018-Apr-18 15:31N 37°48' W 122°21'815.1
2018-Apr-18 15:01N 37°40' W 122°22'1223.3
2018-Apr-18 14:31N 37°52' W 122°20'4 8.0
2018-Apr-18 14:00N 37°48' W 122°22'815.0
2018-Apr-18 13:31N 37°40' W 122°22'1224.8
2018-Apr-18 13:00N 37°53' W 122°24'3 5.5
2018-Apr-18 12:30N 37°55' W 122°21'2 4.7
2018-Apr-18 12:01N 37°53' W 122°24'5 0.4
2018-Apr-18 01:01N 37°51' W 122°19'0 6.1
2018-Apr-18 01:01N 37°51' W 122°19'2 4.7
2018-Apr-18 00:30N 37°50' W 122°22'1020.2
2018-Apr-18 00:00N 37°40' W 122°23'815.5
2018-Apr-17 23:31N 37°48' W 122°22'714.5
2018-Apr-17 23:01N 37°55' W 122°21'1019.5
2018-Apr-17 22:30N 37°45' W 122°22'510.1
2018-Apr-17 22:00N 37°40' W 122°22'816.6
2018-Apr-17 21:30N 37°42' W 122°11'0 0.0
2018-Apr-17 21:00N 37°42' W 122°11'611.4
2018-Apr-17 20:31N 37°44' W 122°18'713.1
2018-Apr-17 20:01N 37°50' W 122°19'0 0.0
2018-Apr-17 16:29N 37°50' W 122°19'0 0.0
2018-Apr-17 16:00N 37°50' W 122°19'4 7.1
2018-Apr-17 15:31N 37°47' W 122°21'815.3
2018-Apr-17 15:00N 37°40' W 122°22'1223.5
2018-Apr-17 14:30N 37°51' W 122°20'3 5.7
2018-Apr-17 14:00N 37°49' W 122°21'918.0
2018-Apr-17 13:30N 37°40' W 122°22'1224.5
2018-Apr-17 13:00N 37°52' W 122°24'3 6.6
2018-Apr-17 12:30N 37°55' W 122°21'4 8.5
2018-Apr-17 12:00N 37°51' W 122°20'1 0.1
2018-Apr-17 01:03N 37°50' W 122°19'0 5.7
2018-Apr-17 01:01N 37°51' W 122°19'2 4.9
2018-Apr-17 00:31N 37°50' W 122°22'1020.1
2018-Apr-17 00:00N 37°40' W 122°23'1122.5
2018-Apr-16 23:30N 37°51' W 122°23'3 6.4
2018-Apr-16 23:00N 37°54' W 122°22'816.1
2018-Apr-16 22:31N 37°46' W 122°22'612.6
2018-Apr-16 22:00N 37°40' W 122°23'0 0.0
2018-Apr-16 21:30N 37°40' W 122°23'0 0.0
2018-Apr-16 21:00N 37°40' W 122°23'0 0.0
2018-Apr-16 20:30N 37°40' W 122°23'714.5
2018-Apr-16 20:01N 37°47' W 122°21'4 7.9
2018-Apr-16 19:30N 37°50' W 122°19'0 0.0
2018-Apr-16 18:26N 37°50' W 122°19'0 0.0
2018-Apr-16 18:00N 37°50' W 122°19'0 0.0
2018-Apr-16 17:03N 37°50' W 122°19'0 0.0
2018-Apr-16 17:00N 37°50' W 122°19'0 0.0
2018-Apr-16 16:30N 37°50' W 122°19'0 0.0
2018-Apr-16 16:01N 37°50' W 122°19'5 9.6
2018-Apr-16 15:31N 37°46' W 122°22'612.5
2018-Apr-16 15:00N 37°40' W 122°22'1223.9
2018-Apr-16 14:31N 37°52' W 122°20'3 7.0
2018-Apr-16 14:01N 37°48' W 122°21'917.0
2018-Apr-16 13:30N 37°40' W 122°22'1325.3
2018-Apr-16 13:01N 37°52' W 122°24'3 5.9
2018-Apr-16 12:30N 37°55' W 122°21'4 8.4
2018-Apr-16 12:00N 37°51' W 122°20'  
Track history (hours):
 
Tides and Currents Weather Stations Pressure Air Temp Water Temp Dewpoint Dewpoint Depression Visibility Wind Speed Wind Dir Waves Ship Positions

Sequoia

Owner: PropSF, LLC, Alameda, CA. More information available from US FCC via Universal Licensing System and Coast Guard Vessel Documentation Center.

Last reported at 2018-Apr-24 12:31 UTC. Time now 2018-Apr-24 12:42 UTC.
Position N 37°55' W 122°21'.

Length 17 m.

Type: Passenger vessel. MMSI: 367776380.

Date/timePositionNaut miles runAvg speedWind from/ knotsBaromVisibWave heightAir tempDewpointWater temp
2018-Apr-24 12:31N 37°55' W 122°21'3 5.4
2018-Apr-24 12:00N 37°52' W 122°23'4 0.3
2018-Apr-24 01:04N 37°51' W 122°19'118.7
2018-Apr-24 01:00N 37°51' W 122°20'2 4.6
2018-Apr-24 00:30N 37°49' W 122°21'917.7
2018-Apr-24 00:00N 37°40' W 122°23'917.6
2018-Apr-23 23:30N 37°49' W 122°23'612.0
2018-Apr-23 23:01N 37°55' W 122°21'1020.1
2018-Apr-23 22:31N 37°44' W 122°21'5 9.3
2018-Apr-23 22:00N 37°40' W 122°23'917.5
2018-Apr-23 21:31N 37°48' W 122°22'3 0.6
2018-Apr-23 15:43N 37°50' W 122°19'417.0
2018-Apr-23 15:31N 37°47' W 122°21'713.3
2018-Apr-23 15:00N 37°41' W 122°22'1122.3
2018-Apr-23 14:30N 37°52' W 122°19'4 7.3
2018-Apr-23 14:01N 37°49' W 122°21'917.6
2018-Apr-23 13:31N 37°40' W 122°22'1325.9
2018-Apr-23 13:01N 37°53' W 122°23'3 5.4
2018-Apr-23 12:30N 37°55' W 122°21'4 8.3
2018-Apr-23 12:01N 37°51' W 122°21'  
2018-Apr-21 01:16N 37°50' W 122°19'2 6.1
2018-Apr-21 01:01N 37°51' W 122°21'1 3.0
2018-Apr-21 00:30N 37°50' W 122°21'1019.5
2018-Apr-21 00:00N 37°40' W 122°23'917.2
2018-Apr-20 23:31N 37°48' W 122°23'612.9
2018-Apr-20 23:00N 37°55' W 122°21'1019.5
2018-Apr-20 22:31N 37°45' W 122°22'510.4
2018-Apr-20 22:00N 37°40' W 122°22'1122.0
2018-Apr-20 21:31N 37°51' W 122°19'0 0.1
2018-Apr-20 16:59N 37°50' W 122°19'0 0.0
2018-Apr-20 16:30N 37°50' W 122°19'0 0.0
2018-Apr-20 16:00N 37°50' W 122°19'4 8.9
2018-Apr-20 15:31N 37°46' W 122°21'611.5
2018-Apr-20 15:00N 37°41' W 122°22'1121.9
2018-Apr-20 14:30N 37°52' W 122°20'3 5.7
2018-Apr-20 14:01N 37°49' W 122°21'918.1
2018-Apr-20 13:31N 37°40' W 122°22'1224.8
2018-Apr-20 13:01N 37°52' W 122°24'3 6.3
2018-Apr-20 12:30N 37°55' W 122°21'4 7.9
2018-Apr-20 12:01N 37°51' W 122°22'3 0.2
2018-Apr-20 01:04N 37°50' W 122°19'1 9.0
2018-Apr-20 01:01N 37°51' W 122°19'2 4.0
2018-Apr-20 00:31N 37°50' W 122°22'1019.7
2018-Apr-20 00:00N 37°40' W 122°23'1019.4
2018-Apr-19 23:31N 37°49' W 122°23'510.6
2018-Apr-19 23:01N 37°55' W 122°21'1019.9
2018-Apr-19 22:31N 37°45' W 122°21'5 9.8
2018-Apr-19 22:00N 37°40' W 122°23'3 6.1
2018-Apr-19 21:31N 37°43' W 122°21'815.5
2018-Apr-19 21:00N 37°50' W 122°19'0 0.0
2018-Apr-19 17:30N 37°50' W 122°19'0 0.0
2018-Apr-19 17:00N 37°50' W 122°19'0 0.0
2018-Apr-19 16:30N 37°50' W 122°19'0 0.0
2018-Apr-19 16:00N 37°50' W 122°19'4 8.3
2018-Apr-19 15:30N 37°47' W 122°22'612.5
2018-Apr-19 15:00N 37°41' W 122°22'1121.7
2018-Apr-19 14:30N 37°52' W 122°20'3 6.9
2018-Apr-19 14:00N 37°49' W 122°21'917.2
2018-Apr-19 13:31N 37°40' W 122°22'1325.2
2018-Apr-19 13:00N 37°52' W 122°24'3 5.9
2018-Apr-19 12:30N 37°55' W 122°21'3 6.9
2018-Apr-19 12:00N 37°52' W 122°22'3 0.3
2018-Apr-19 01:03N 37°50' W 122°19'0 5.1
2018-Apr-19 01:00N 37°51' W 122°19'2 4.9
2018-Apr-19 00:31N 37°50' W 122°22'1020.5
2018-Apr-19 00:00N 37°40' W 122°23'816.2
2018-Apr-18 23:30N 37°48' W 122°22'713.6
2018-Apr-18 23:00N 37°55' W 122°21'918.2
2018-Apr-18 22:31N 37°46' W 122°22'611.7
2018-Apr-18 22:00N 37°40' W 122°23'2 4.2
2018-Apr-18 21:30N 37°42' W 122°22'917.9
2018-Apr-18 21:00N 37°50' W 122°19'0 0.0
2018-Apr-18 18:03N 37°50' W 122°19'0 0.0
2018-Apr-18 18:01N 37°50' W 122°19'0 0.0
2018-Apr-18 17:30N 37°50' W 122°19'0 0.0
2018-Apr-18 17:00N 37°50' W 122°19'0 0.0
2018-Apr-18 16:30N 37°50' W 122°19'0 0.0
2018-Apr-18 16:00N 37°50' W 122°19'3 6.4
2018-Apr-18 15:31N 37°48' W 122°21'815.1
2018-Apr-18 15:01N 37°40' W 122°22'1223.3
2018-Apr-18 14:31N 37°52' W 122°20'4 8.0
2018-Apr-18 14:00N 37°48' W 122°22'815.0
2018-Apr-18 13:31N 37°40' W 122°22'1224.8
2018-Apr-18 13:00N 37°53' W 122°24'3 5.5
2018-Apr-18 12:30N 37°55' W 122°21'2 4.7
2018-Apr-18 12:01N 37°53' W 122°24'5 0.4
2018-Apr-18 01:01N 37°51' W 122°19'0 6.1
2018-Apr-18 01:01N 37°51' W 122°19'2 4.7
2018-Apr-18 00:30N 37°50' W 122°22'1020.2
2018-Apr-18 00:00N 37°40' W 122°23'815.5
2018-Apr-17 23:31N 37°48' W 122°22'714.5
2018-Apr-17 23:01N 37°55' W 122°21'1019.5
2018-Apr-17 22:30N 37°45' W 122°22'510.1
2018-Apr-17 22:00N 37°40' W 122°22'816.6
2018-Apr-17 21:30N 37°42' W 122°11'0 0.0
2018-Apr-17 21:00N 37°42' W 122°11'611.4
2018-Apr-17 20:31N 37°44' W 122°18'713.1
2018-Apr-17 20:01N 37°50' W 122°19'0 0.0
2018-Apr-17 16:29N 37°50' W 122°19'0 0.0
2018-Apr-17 16:00N 37°50' W 122°19'4 7.1
2018-Apr-17 15:31N 37°47' W 122°21'815.3
2018-Apr-17 15:00N 37°40' W 122°22'1223.5
2018-Apr-17 14:30N 37°51' W 122°20'3 5.7
2018-Apr-17 14:00N 37°49' W 122°21'918.0
2018-Apr-17 13:30N 37°40' W 122°22'1224.5
2018-Apr-17 13:00N 37°52' W 122°24'3 6.6
2018-Apr-17 12:30N 37°55' W 122°21'4 8.5
2018-Apr-17 12:00N 37°51' W 122°20'1 0.1
2018-Apr-17 01:03N 37°50' W 122°19'0 5.7
2018-Apr-17 01:01N 37°51' W 122°19'2 4.9
2018-Apr-17 00:31N 37°50' W 122°22'1020.1
2018-Apr-17 00:00N 37°40' W 122°23'1122.5
2018-Apr-16 23:30N 37°51' W 122°23'3 6.4
2018-Apr-16 23:00N 37°54' W 122°22'816.1
2018-Apr-16 22:31N 37°46' W 122°22'612.6
2018-Apr-16 22:00N 37°40' W 122°23'0 0.0
2018-Apr-16 21:30N 37°40' W 122°23'0 0.0
2018-Apr-16 21:00N 37°40' W 122°23'0 0.0
2018-Apr-16 20:30N 37°40' W 122°23'714.5
2018-Apr-16 20:01N 37°47' W 122°21'4 7.9
2018-Apr-16 19:30N 37°50' W 122°19'0 0.0
2018-Apr-16 18:26N 37°50' W 122°19'0 0.0
2018-Apr-16 18:00N 37°50' W 122°19'0 0.0
2018-Apr-16 17:03N 37°50' W 122°19'0 0.0
2018-Apr-16 17:00N 37°50' W 122°19'0 0.0
2018-Apr-16 16:30N 37°50' W 122°19'0 0.0
2018-Apr-16 16:01N 37°50' W 122°19'5 9.6
2018-Apr-16 15:31N 37°46' W 122°22'612.5
2018-Apr-16 15:00N 37°40' W 122°22'1223.9
2018-Apr-16 14:31N 37°52' W 122°20'3 7.0
2018-Apr-16 14:01N 37°48' W 122°21'917.0
2018-Apr-16 13:30N 37°40' W 122°22'1325.3
2018-Apr-16 13:01N 37°52' W 122°24'3 5.9
2018-Apr-16 12:30N 37°55' W 122°21'4 8.4
2018-Apr-16 12:00N 37°51' W 122°20'  

Dump ship's entire track history